Time;durP1;ratioP1;P1;durP2;ratioP2;P2;SDS_P1;SDS_P2;PMS_P1;PMS_P2;Temp;Humidity;BMP_temperature;BMP_pressure;BME280_temperature;BME280_humidity;BME280_pressure;Samples;Min_cycle;Max_cycle;Signal;HPM_P1;HPM_P2
2021/08/17 04:00:41;;;;;;;9.50;6.77;;;12.10;99.90;;;;;;5875063;23;21104;-65
2021/08/17 04:03:08;;;;;;;6.57;5.90;;;12.10;99.90;;;;;;4995805;28;20453;-66
2021/08/17 04:05:35;;;;;;;9.20;6.80;;;12.10;99.90;;;;;;4995781;28;20809;-66
2021/08/17 04:08:05;;;;;;;8.33;6.23;;;12.10;99.90;;;;;;4995339;28;20817;-66
2021/08/17 04:10:32;;;;;;;9.07;6.43;;;12.00;99.90;;;;;;4994294;28;20992;-65
2021/08/17 04:12:58;;;;;;;6.73;6.10;;;12.00;99.90;;;;;;4995713;28;20846;-66
2021/08/17 04:15:26;;;;;;;10.37;7.03;;;12.10;99.90;;;;;;4995447;28;20460;-66
2021/08/17 04:17:54;;;;;;;7.90;6.50;;;12.10;99.90;;;;;;4995382;28;20812;-66
2021/08/17 04:20:20;;;;;;;11.00;7.07;;;12.10;99.90;;;;;;4995342;28;20458;-65
2021/08/17 04:22:47;;;;;;;7.97;5.93;;;12.10;99.90;;;;;;4995101;28;20940;-65
2021/08/17 04:25:14;;;;;;;9.77;6.57;;;12.10;99.90;;;;;;4995361;28;20818;-66
2021/08/17 04:27:41;;;;;;;9.20;6.67;;;12.10;99.90;;;;;;4995384;28;20464;-65
2021/08/17 04:30:09;;;;;;;8.27;6.13;;;12.10;99.90;;;;;;4995311;28;20449;-65
2021/08/17 04:32:36;;;;;;;7.97;5.80;;;12.10;99.90;;;;;;4995162;28;20461;-66
2021/08/17 04:35:04;;;;;;;7.87;6.10;;;12.10;99.90;;;;;;4995197;28;20468;-66
2021/08/17 04:37:31;;;;;;;10.03;6.50;;;12.10;99.90;;;;;;4995126;28;20464;-66
2021/08/17 04:39:58;;;;;;;8.80;5.83;;;12.10;99.90;;;;;;4994730;28;21000;-66
2021/08/17 04:42:24;;;;;;;7.87;6.43;;;12.10;99.90;;;;;;4995259;28;20477;-66
2021/08/17 04:44:51;;;;;;;11.20;6.93;;;12.10;99.90;;;;;;4994998;28;20458;-66
2021/08/17 04:47:18;;;;;;;7.80;6.63;;;12.20;99.90;;;;;;4995020;28;20480;-66
2021/08/17 04:49:44;;;;;;;6.07;5.47;;;12.20;99.90;;;;;;4994914;28;20465;-66
2021/08/17 04:52:12;;;;;;;9.27;5.70;;;12.20;99.90;;;;;;4994869;28;20811;-65
2021/08/17 04:54:39;;;;;;;8.37;5.90;;;12.20;99.90;;;;;;4994918;28;20454;-65
2021/08/17 04:57:06;;;;;;;8.50;6.10;;;12.20;99.90;;;;;;4994985;28;20450;-66
2021/08/17 04:59:33;;;;;;;7.37;5.87;;;12.20;99.90;;;;;;4995007;28;20473;-66
2021/08/17 05:02:00;;;;;;;8.73;6.80;;;12.20;99.90;;;;;;4994925;28;20485;-65
2021/08/17 05:04:27;;;;;;;14.10;6.20;;;12.30;99.90;;;;;;4995099;28;20461;-65
2021/08/17 05:06:53;;;;;;;7.47;6.70;;;12.30;99.90;;;;;;4994844;28;20457;-66
2021/08/17 05:09:22;;;;;;;6.90;5.90;;;12.30;99.90;;;;;;4994396;28;20948;-66
2021/08/17 05:11:49;;;;;;;7.37;5.60;;;12.40;99.90;;;;;;4994430;28;20481;-65
2021/08/17 05:14:16;;;;;;;12.07;7.00;;;12.40;99.90;;;;;;4994694;28;20462;-66
2021/08/17 05:16:42;;;;;;;7.87;6.40;;;12.40;99.90;;;;;;4994559;28;20457;-66
2021/08/17 05:19:09;;;;;;;7.97;6.07;;;12.50;99.90;;;;;;4994551;28;20473;-66
2021/08/17 05:21:36;;;;;;;7.90;6.50;;;12.50;99.90;;;;;;4994109;28;20473;-65
2021/08/17 05:24:02;;;;;;;9.40;7.40;;;12.60;99.90;;;;;;4994484;28;20453;-65
2021/08/17 05:26:30;;;;;;;7.93;6.03;;;12.50;99.90;;;;;;4994116;28;20458;-65
2021/08/17 05:28:57;;;;;;;7.13;6.00;;;12.50;99.90;;;;;;4994413;28;20453;-65
2021/08/17 05:31:24;;;;;;;8.47;6.37;;;12.60;99.90;;;;;;4994176;28;20481;-66
2021/08/17 05:33:50;;;;;;;8.93;6.27;;;12.60;99.90;;;;;;4994826;28;20805;-66
2021/08/17 05:36:17;;;;;;;10.30;5.83;;;12.70;99.90;;;;;;4994310;28;20480;-66
2021/08/17 05:38:44;;;;;;;8.30;5.97;;;12.80;99.90;;;;;;4994073;28;20843;-66
2021/08/17 05:41:11;;;;;;;7.70;5.63;;;13.10;99.90;;;;;;4994318;28;20502;-65
2021/08/17 05:43:39;;;;;;;7.60;6.30;;;13.30;99.90;;;;;;4994339;28;20456;-66
2021/08/17 05:46:07;;;;;;;6.60;5.80;;;13.60;99.90;;;;;;4994417;28;20496;-66
2021/08/17 05:48:34;;;;;;;11.43;6.20;;;13.90;99.90;;;;;;4994031;28;20968;-65
2021/08/17 05:51:01;;;;;;;11.17;5.60;;;14.20;99.90;;;;;;4994150;28;20473;-65
2021/08/17 05:53:28;;;;;;;6.20;5.60;;;14.50;99.90;;;;;;4994208;28;20483;-66
2021/08/17 05:55:54;;;;;;;6.10;5.43;;;14.80;99.90;;;;;;4994303;28;20458;-66
2021/08/17 05:58:21;;;;;;;5.80;5.17;;;15.10;99.90;;;;;;4994187;28;20457;-66
2021/08/17 06:00:49;;;;;;;6.60;6.00;;;15.40;99.90;;;;;;4994044;28;20490;-66
2021/08/17 06:03:16;;;;;;;6.43;5.20;;;15.80;99.90;;;;;;4994003;28;20802;-66
2021/08/17 06:05:42;;;;;;;6.93;6.17;;;16.10;99.90;;;;;;4994346;28;20457;-66
2021/08/17 06:08:09;;;;;;;7.10;5.40;;;16.50;99.90;;;;;;4994150;28;20461;-65
2021/08/17 06:10:36;;;;;;;7.10;5.43;;;16.80;99.90;;;;;;4994095;28;20476;-66
2021/08/17 06:13:03;;;;;;;6.10;5.47;;;17.10;99.90;;;;;;5001027;28;20454;-66
2021/08/17 06:15:29;;;;;;;5.80;5.20;;;17.50;99.90;;;;;;5003078;28;20459;-66
2021/08/17 06:18:04;;;;;;;6.10;4.93;;;17.70;99.90;;;;;;5002219;28;20458;-65
2021/08/17 06:20:31;;;;;;;6.00;5.47;;;18.10;99.90;;;;;;5000225;28;20485;-65
2021/08/17 06:22:58;;;;;;;11.30;5.30;;;18.40;99.90;;;;;;4995743;28;20461;-64
2021/08/17 06:25:25;;;;;;;5.50;4.83;;;18.70;99.90;;;;;;4994256;28;20454;-64
2021/08/17 06:27:52;;;;;;;7.37;5.37;;;18.90;99.90;;;;;;4994042;28;20457;-66
2021/08/17 06:30:18;;;;;;;6.03;4.90;;;19.10;99.90;;;;;;4993896;28;20460;-66
2021/08/17 06:32:45;;;;;;;6.30;5.70;;;19.40;99.90;;;;;;4993970;28;20890;-66
2021/08/17 06:35:13;;;;;;;5.50;4.97;;;19.70;99.90;;;;;;4996885;28;20453;-64
2021/08/17 06:37:40;;;;;;;5.30;4.80;;;20.00;99.90;;;;;;4997386;28;20458;-66
2021/08/17 06:40:08;;;;;;;8.60;5.97;;;20.10;99.90;;;;;;4997402;28;20473;-65
2021/08/17 06:42:35;;;;;;;6.53;5.80;;;20.40;99.90;;;;;;4997237;28;20477;-64
2021/08/17 06:45:02;;;;;;;5.73;5.23;;;20.70;99.90;;;;;;4997355;28;20449;-65
2021/08/17 06:47:29;;;;;;;5.23;4.83;;;21.00;99.90;;;;;;4996947;28;20530;-66
2021/08/17 06:49:55;;;;;;;5.50;4.87;;;21.10;99.90;;;;;;4997273;28;20855;-67
2021/08/17 06:52:23;;;;;;;5.53;5.03;;;21.20;99.90;;;;;;4997114;28;20477;-66
2021/08/17 06:54:50;;;;;;;8.27;5.80;;;21.30;99.90;;;;;;4996763;28;20465;-66
2021/08/17 06:57:17;;;;;;;7.07;5.70;;;21.10;99.90;;;;;;4997022;28;20569;-66
2021/08/17 06:59:44;;;;;;;5.87;5.33;;;21.10;99.90;;;;;;4996581;28;20474;-66
2021/08/17 07:02:10;;;;;;;6.27;5.40;;;21.10;99.90;;;;;;4996824;28;20490;-66
2021/08/17 07:04:37;;;;;;;6.63;5.03;;;20.90;99.90;;;;;;4996945;28;20454;-66
2021/08/17 07:07:04;;;;;;;6.73;5.83;;;20.80;99.90;;;;;;4996831;28;20458;-66
2021/08/17 07:09:32;;;;;;;5.40;4.90;;;20.50;99.90;;;;;;4996887;28;20820;-66
2021/08/17 07:11:58;;;;;;;5.70;5.10;;;20.60;99.90;;;;;;4996854;28;20474;-66
2021/08/17 07:14:25;;;;;;;6.13;5.50;;;21.00;99.90;;;;;;4996652;28;20454;-66
2021/08/17 07:16:52;;;;;;;7.23;5.80;;;21.50;99.90;;;;;;4996388;28;20928;-66
2021/08/17 07:19:19;;;;;;;5.60;5.10;;;21.70;99.90;;;;;;4996492;28;20489;-65
2021/08/17 07:21:46;;;;;;;7.40;6.70;;;21.80;99.90;;;;;;4996412;28;20482;-66
2021/08/17 07:24:12;;;;;;;6.70;5.10;;;21.80;99.90;;;;;;4996530;28;20460;-65
2021/08/17 07:26:40;;;;;;;6.13;5.53;;;22.10;99.90;;;;;;4996523;28;20461;-65
2021/08/17 07:29:07;;;;;;;7.50;5.33;;;22.60;99.90;;;;;;4996137;28;20893;-64
2021/08/17 07:31:36;;;;;;;6.90;6.30;;;22.90;99.90;;;;;;4995916;28;20852;-64
2021/08/17 07:34:05;;;;;;;7.40;6.73;;;23.10;99.90;;;;;;4996439;28;20453;-65
2021/08/17 07:36:32;;;;;;;5.90;5.40;;;23.40;99.90;;;;;;4996032;28;20548;-66
2021/08/17 07:38:59;;;;;;;8.40;6.30;;;23.40;99.90;;;;;;4996350;28;20493;-66
2021/08/17 07:41:26;;;;;;;7.80;6.07;;;23.00;99.90;;;;;;4996695;28;20505;-65
2021/08/17 07:43:54;;;;;;;6.53;5.93;;;23.10;99.90;;;;;;4996330;28;20533;-64
2021/08/17 07:46:21;;;;;;;8.57;6.40;;;23.60;99.70;;;;;;4995936;28;20461;-64
2021/08/17 07:48:48;;;;;;;6.40;5.80;;;24.20;99.00;;;;;;4995726;28;20976;-64
2021/08/17 07:51:15;;;;;;;8.20;6.10;;;24.70;98.10;;;;;;4995994;28;20481;-64
2021/08/17 07:53:41;;;;;;;9.00;6.40;;;24.60;96.50;;;;;;4995970;28;20453;-64
2021/08/17 07:56:09;;;;;;;7.97;6.43;;;23.90;96.20;;;;;;4996047;28;20457;-64
2021/08/17 07:58:36;;;;;;;10.30;7.17;;;23.20;97.50;;;;;;4995952;28;20497;-65
2021/08/17 08:01:04;;;;;;;8.90;6.60;;;23.00;97.60;;;;;;4995238;28;20486;-64
2021/08/17 08:03:31;;;;;;;7.10;6.40;;;22.70;98.40;;;;;;4995836;28;20454;-65
2021/08/17 08:05:57;;;;;;;8.10;7.30;;;22.10;98.50;;;;;;4995825;28;20450;-65
2021/08/17 08:08:24;;;;;;;8.93;7.43;;;21.80;99.90;;;;;;4995600;28;20462;-65
2021/08/17 08:10:52;;;;;;;10.17;7.47;;;21.60;98.80;;;;;;4995885;28;20485;-65
2021/08/17 08:13:19;;;;;;;7.67;6.93;;;22.20;99.90;;;;;;4995694;28;20460;-65
2021/08/17 08:15:45;;;;;;;8.17;6.20;;;23.10;98.80;;;;;;4995299;28;20824;-65
2021/08/17 08:18:13;;;;;;;7.40;6.60;;;23.90;96.30;;;;;;4995665;28;20450;-65
2021/08/17 08:20:40;;;;;;;8.07;6.90;;;24.60;93.90;;;;;;4995302;28;20478;-64
2021/08/17 08:23:08;;;;;;;7.50;6.90;;;25.20;92.20;;;;;;4995390;28;20464;-64
2021/08/17 08:25:35;;;;;;;8.13;7.30;;;25.40;90.80;;;;;;4995561;28;20446;-65
2021/08/17 08:28:02;;;;;;;9.47;7.27;;;25.70;90.30;;;;;;4995157;28;20952;-64
2021/08/17 08:30:29;;;;;;;8.00;7.20;;;25.70;90.20;;;;;;4995741;28;20460;-65
2021/08/17 08:32:55;;;;;;;8.83;7.53;;;25.80;90.20;;;;;;4995440;28;20454;-65
2021/08/17 08:35:23;;;;;;;6.83;6.23;;;25.20;91.00;;;;;;4995259;28;20458;-65
2021/08/17 08:37:50;;;;;;;8.40;6.80;;;25.20;90.00;;;;;;4995231;28;20450;-65
2021/08/17 08:40:17;;;;;;;7.40;6.70;;;24.70;90.50;;;;;;4994963;28;20478;-65
2021/08/17 08:42:45;;;;;;;7.50;6.80;;;24.50;90.10;;;;;;4996034;28;20462;-65
2021/08/17 08:45:12;;;;;;;7.37;6.73;;;24.40;90.80;;;;;;4995133;28;20453;-65
2021/08/17 08:47:40;;;;;;;9.50;6.83;;;24.40;90.60;;;;;;4995060;28;20458;-66
2021/08/17 08:50:09;;;;;;;7.10;6.50;;;24.40;90.70;;;;;;4995754;28;20508;-65
2021/08/17 08:52:37;;;;;;;6.90;6.30;;;24.30;90.60;;;;;;5009317;28;20548;-66
2021/08/17 08:55:05;;;;;;;6.57;6.00;;;24.20;92.50;;;;;;4997906;28;20836;-65
2021/08/17 08:57:32;;;;;;;7.07;6.37;;;23.90;93.40;;;;;;4994554;28;20458;-65
2021/08/17 08:59:59;;;;;;;6.80;6.20;;;24.00;91.80;;;;;;4995011;28;20473;-65
2021/08/17 09:02:29;;;;;;;6.57;6.03;;;24.00;91.60;;;;;;4995046;28;20485;-65
2021/08/17 09:04:58;;;;;;;7.40;6.67;;;24.20;92.60;;;;;;4994656;28;20960;-65
2021/08/17 09:07:42;;;;;;;6.80;6.10;;;24.40;89.90;;;;;;4994697;28;20469;-65
2021/08/17 09:10:12;;;;;;;9.53;6.27;;;25.20;85.90;;;;;;4994812;28;20446;-65
2021/08/17 09:12:41;;;;;;;6.20;5.70;;;25.90;89.60;;;;;;4994641;28;20442;-65
2021/08/17 09:15:11;;;;;;;6.17;5.67;;;26.50;87.60;;;;;;4995304;28;20481;-66
2021/08/17 09:17:40;;;;;;;5.93;5.43;;;27.00;81.80;;;;;;4994925;28;20434;-65
2021/08/17 09:20:10;;;;;;;6.73;6.20;;;27.20;76.00;;;;;;4994531;28;20992;-65
2021/08/17 09:22:38;;;;;;;6.50;5.90;;;27.60;76.60;;;;;;4995047;28;20548;-65
2021/08/17 09:25:06;;;;;;;6.50;6.00;;;27.40;75.00;;;;;;4994203;28;20458;-66
2021/08/17 09:27:34;;;;;;;6.27;5.77;;;27.40;74.10;;;;;;4994410;28;20461;-66
2021/08/17 09:30:05;;;;;;;5.00;4.60;;;27.60;74.80;;;;;;4994636;28;20461;-66
2021/08/17 09:32:32;;;;;;;6.03;5.43;;;27.80;67.90;;;;;;4994549;28;20481;-66
2021/08/17 09:35:00;;;;;;;5.90;5.40;;;27.40;65.30;;;;;;4994608;28;20512;-65
2021/08/17 09:37:29;;;;;;;7.30;6.60;;;27.10;66.40;;;;;;5002653;28;20484;-66
2021/08/17 09:39:57;;;;;;;6.53;5.80;;;26.20;67.30;;;;;;5009214;28;20474;-65
2021/08/17 09:42:25;;;;;;;6.33;5.83;;;25.30;68.60;;;;;;4996312;28;20473;-65
2021/08/17 09:45:11;;;;;;;7.03;6.33;;;24.50;74.70;;;;;;5000141;28;20465;-66
2021/08/17 09:47:40;;;;;;;6.37;5.80;;;24.50;78.20;;;;;;4996831;28;20480;-65
2021/08/17 09:50:27;;;;;;;6.23;5.30;;;24.40;76.90;;;;;;4994550;28;20450;-65
2021/08/17 09:53:10;;;;;;;5.80;5.30;;;24.30;74.10;;;;;;4994356;28;20465;-64
2021/08/17 09:55:46;;;;;;;7.00;6.27;;;23.90;77.40;;;;;;4994254;28;20438;-64
2021/08/17 09:58:21;;;;;;;7.20;6.33;;;23.50;77.30;;;;;;4993962;28;20908;-64
2021/08/17 10:00:49;;;;;;;6.53;5.50;;;23.50;79.90;;;;;;4993832;28;20489;-64
2021/08/17 10:03:16;;;;;;;6.20;5.60;;;23.30;81.10;;;;;;4994272;28;20457;-65
2021/08/17 10:05:43;;;;;;;6.97;6.37;;;23.00;81.60;;;;;;4994223;28;20480;-66
2021/08/17 10:08:11;;;;;;;7.00;6.37;;;22.60;81.20;;;;;;4994340;28;20818;-65
2021/08/17 10:10:38;;;;;;;6.17;5.40;;;22.40;85.00;;;;;;4997942;28;20477;-65
2021/08/17 10:13:10;;;;;;;8.40;6.13;;;22.30;82.40;;;;;;4997764;28;20971;-65
2021/08/17 10:15:36;;;;;;;6.03;5.53;;;22.00;82.10;;;;;;4997623;28;20928;-65
2021/08/17 10:18:04;;;;;;;5.30;4.80;;;22.00;83.60;;;;;;4997856;28;20460;-65
2021/08/17 10:20:32;;;;;;;9.00;5.27;;;21.80;78.50;;;;;;4997595;28;20477;-65
2021/08/17 10:22:59;;;;;;;6.20;5.70;;;21.90;80.50;;;;;;4997813;28;20458;-65
2021/08/17 10:25:26;;;;;;;6.77;6.13;;;21.80;83.60;;;;;;4997717;28;20462;-65
2021/08/17 10:27:52;;;;;;;6.97;6.27;;;21.50;84.60;;;;;;4997698;28;20480;-65
2021/08/17 10:30:22;;;;;;;5.80;5.30;;;21.30;84.30;;;;;;4997416;28;20442;-65
2021/08/17 10:32:55;;;;;;;6.00;5.43;;;21.60;87.20;;;;;;4997407;28;20453;-66
2021/08/17 10:35:55;;;;;;;6.13;5.53;;;21.80;86.90;;;;;;4997234;28;20901;-65
2021/08/17 10:38:48;;;;;;;6.83;5.13;;;22.10;90.00;;;;;;4997431;28;20444;-66
2021/08/17 10:41:25;;;;;;;5.97;4.97;;;22.50;85.40;;;;;;4997277;28;20543;-66
2021/08/17 10:44:21;;;;;;;5.80;5.30;;;22.80;84.40;;;;;;4997006;28;20905;-65
2021/08/17 10:47:01;;;;;;;5.37;4.87;;;23.10;82.20;;;;;;4997299;28;20438;-66
2021/08/17 10:49:50;;;;;;;4.80;4.40;;;23.50;85.10;;;;;;4997148;28;20453;-65
2021/08/17 10:52:39;;;;;;;5.10;4.60;;;24.10;76.10;;;;;;4997119;28;20472;-65
2021/08/17 10:55:29;;;;;;;5.10;4.60;;;24.90;80.00;;;;;;4997172;28;20438;-65
2021/08/17 10:57:58;;;;;;;5.20;4.80;;;25.60;76.10;;;;;;4996998;28;20449;-65
2021/08/17 11:00:50;;;;;;;5.47;4.97;;;26.10;78.00;;;;;;4996705;28;20844;-65
2021/08/17 11:03:38;;;;;;;5.40;4.90;;;26.50;71.00;;;;;;4986527;28;20963;-65
2021/08/17 11:06:05;;;;;;;4.23;3.80;;;26.30;71.20;;;;;;4996929;28;20449;-65
2021/08/17 11:08:40;;;;;;;7.47;3.93;;;26.30;70.40;;;;;;4996753;28;20457;-65
2021/08/17 11:11:18;;;;;;;5.20;4.80;;;26.50;73.30;;;;;;4997659;28;20473;-66
2021/08/17 11:14:05;;;;;;;5.00;4.30;;;26.30;71.80;;;;;;4998329;28;20434;-66
2021/08/17 11:16:32;;;;;;;4.57;4.27;;;25.80;66.20;;;;;;4997838;28;20457;-66
2021/08/17 11:19:02;;;;;;;4.87;4.43;;;25.50;70.00;;;;;;4998277;28;20438;-66
2021/08/17 11:21:38;;;;;;;5.77;5.30;;;25.30;71.30;;;;;;4997526;28;20486;-65
2021/08/17 11:24:24;;;;;;;6.43;4.30;;;25.40;76.90;;;;;;4997757;28;20438;-65
2021/08/17 11:26:59;;;;;;;4.83;4.40;;;26.10;71.90;;;;;;4998002;28;20441;-66
2021/08/17 11:29:29;;;;;;;6.00;5.40;;;26.00;69.20;;;;;;4996733;28;20453;-66
2021/08/17 11:31:57;;;;;;;5.33;4.70;;;26.00;69.30;;;;;;4996403;28;20469;-66
2021/08/17 11:34:27;;;;;;;5.20;4.70;;;26.30;68.20;;;;;;4996576;28;20461;-66
2021/08/17 11:36:57;;;;;;;4.93;4.53;;;26.40;75.70;;;;;;4996300;28;20790;-65
2021/08/17 11:39:25;;;;;;;6.40;5.70;;;26.40;73.50;;;;;;4996221;28;20496;-66
2021/08/17 11:41:53;;;;;;;4.80;4.47;;;25.80;70.50;;;;;;4995883;28;20482;-66
2021/08/17 11:44:20;;;;;;;5.20;4.70;;;25.90;73.50;;;;;;4996240;28;20454;-65
2021/08/17 11:46:48;;;;;;;5.33;4.83;;;25.50;74.20;;;;;;4995950;28;20458;-66
2021/08/17 11:49:20;;;;;;;4.70;4.30;;;25.60;74.50;;;;;;4995915;28;20453;-66
2021/08/17 11:51:48;;;;;;;5.30;4.83;;;25.50;66.70;;;;;;4995471;28;20474;-66
2021/08/17 11:54:15;;;;;;;4.90;4.50;;;25.50;72.80;;;;;;4995538;28;20942;-66
2021/08/17 11:56:42;;;;;;;4.30;4.00;;;25.30;71.90;;;;;;4995781;28;20454;-66
2021/08/17 11:59:09;;;;;;;4.40;4.10;;;25.50;72.10;;;;;;4995749;28;20465;-66
2021/08/17 12:01:35;;;;;;;4.90;4.50;;;25.50;70.90;;;;;;4995282;28;20490;-66
2021/08/17 12:04:09;;;;;;;4.90;4.50;;;25.20;63.50;;;;;;4995704;28;20454;-66
2021/08/17 12:06:36;;;;;;;4.83;4.43;;;25.10;72.60;;;;;;4995548;28;20513;-66
2021/08/17 12:09:18;;;;;;;5.07;3.80;;;25.00;68.80;;;;;;4995694;28;20457;-66
2021/08/17 12:11:58;;;;;;;4.53;4.13;;;25.30;74.70;;;;;;4995452;28;20504;-66
2021/08/17 12:14:25;;;;;;;4.47;4.17;;;25.60;72.70;;;;;;4995401;28;20460;-66
2021/08/17 12:16:55;;;;;;;4.13;3.83;;;25.10;63.20;;;;;;4995053;28;20949;-66
2021/08/17 12:19:22;;;;;;;4.43;4.13;;;24.70;66.90;;;;;;4995326;28;20457;-66
2021/08/17 12:21:49;;;;;;;4.27;3.87;;;24.90;73.40;;;;;;4994969;28;21034;-66
2021/08/17 12:24:22;;;;;;;3.97;3.67;;;25.20;67.60;;;;;;4995342;28;20454;-66
2021/08/17 12:26:57;;;;;;;4.20;3.90;;;25.50;71.00;;;;;;4995437;28;20446;-66
2021/08/17 12:29:26;;;;;;;4.20;3.90;;;25.20;63.40;;;;;;4995354;28;20428;-66
2021/08/17 12:31:54;;;;;;;4.13;3.83;;;25.10;67.50;;;;;;4994808;28;20479;-65
2021/08/17 12:34:23;;;;;;;4.07;3.67;;;25.00;65.20;;;;;;4995210;28;20489;-66
2021/08/17 12:36:52;;;;;;;4.70;4.00;;;24.60;62.60;;;;;;5007792;28;20453;-65
2021/08/17 12:39:23;;;;;;;4.50;4.10;;;24.40;64.60;;;;;;5005643;28;20460;-66
2021/08/17 12:41:52;;;;;;;4.83;4.43;;;24.40;67.10;;;;;;4995678;28;20532;-65
2021/08/17 12:44:21;;;;;;;4.73;4.33;;;24.60;71.90;;;;;;4995044;28;20458;-65
2021/08/17 12:47:03;;;;;;;4.33;3.90;;;25.00;67.70;;;;;;4994497;28;20938;-66
2021/08/17 12:49:38;;;;;;;3.87;3.57;;;24.80;64.00;;;;;;4994732;28;20533;-65
2021/08/17 12:52:41;;;;;;;5.07;3.73;;;24.90;65.90;;;;;;4995013;28;20929;-64
2021/08/17 12:55:10;;;;;;;4.03;3.63;;;25.10;65.90;;;;;;4994678;28;20459;-65
2021/08/17 12:57:39;;;;;;;4.33;4.00;;;25.20;65.50;;;;;;4994602;28;20476;-64
2021/08/17 13:00:08;;;;;;;4.63;4.23;;;25.10;65.80;;;;;;4994586;28;20450;-66
2021/08/17 13:02:36;;;;;;;4.07;3.77;;;25.10;67.10;;;;;;4994067;28;20489;-66
2021/08/17 13:05:03;;;;;;;4.90;4.50;;;24.80;66.20;;;;;;4994612;28;20860;-66
2021/08/17 13:07:30;;;;;;;4.47;4.13;;;24.60;65.20;;;;;;4994192;28;20821;-66
2021/08/17 13:09:58;;;;;;;4.53;4.13;;;24.60;69.60;;;;;;4994257;28;20461;-66
2021/08/17 13:12:27;;;;;;;5.00;4.27;;;24.70;67.20;;;;;;4994264;28;20469;-65
2021/08/17 13:14:54;;;;;;;4.07;3.77;;;24.60;65.90;;;;;;4994426;28;20454;-66
2021/08/17 13:17:21;;;;;;;4.40;4.10;;;24.70;67.10;;;;;;4994237;28;20480;-65
2021/08/17 13:19:48;;;;;;;4.00;3.70;;;24.70;66.30;;;;;;4994301;28;20457;-65
2021/08/17 13:22:16;;;;;;;4.17;3.83;;;24.50;66.40;;;;;;4994038;28;20477;-65
2021/08/17 13:24:43;;;;;;;4.73;4.37;;;24.50;67.50;;;;;;4994155;28;20457;-65
2021/08/17 13:27:10;;;;;;;4.43;4.13;;;24.50;68.90;;;;;;4994276;28;20457;-66
2021/08/17 13:29:38;;;;;;;5.20;4.70;;;24.50;70.10;;;;;;4993886;28;20941;-66
2021/08/17 13:32:06;;;;;;;5.10;4.70;;;24.50;70.00;;;;;;4994074;28;20474;-66
2021/08/17 13:34:34;;;;;;;4.70;4.37;;;24.50;70.90;;;;;;4993883;28;20941;-66
2021/08/17 13:37:00;;;;;;;4.70;4.30;;;24.40;69.60;;;;;;4994126;28;20457;-66
2021/08/17 13:39:28;;;;;;;5.57;5.07;;;24.40;70.90;;;;;;4994085;28;20449;-66
2021/08/17 13:41:57;;;;;;;5.20;4.80;;;24.10;67.10;;;;;;4994041;28;20493;-65
2021/08/17 13:44:24;;;;;;;5.70;4.73;;;23.80;68.90;;;;;;4997740;28;21008;-66
2021/08/17 13:46:52;;;;;;;5.63;5.13;;;23.70;73.00;;;;;;4998136;28;20454;-65
2021/08/17 13:49:19;;;;;;;5.30;4.80;;;23.60;75.10;;;;;;4997875;28;20963;-65
2021/08/17 13:51:46;;;;;;;5.17;4.70;;;23.50;72.30;;;;;;4998048;28;20473;-65
2021/08/17 13:54:13;;;;;;;5.30;4.80;;;23.60;74.20;;;;;;4997984;28;20816;-65
2021/08/17 13:56:39;;;;;;;5.40;5.00;;;23.50;71.50;;;;;;4997929;28;20540;-66
2021/08/17 13:59:06;;;;;;;9.10;5.70;;;23.60;73.50;;;;;;4997761;28;20887;-67
2021/08/17 14:01:33;;;;;;;5.40;4.90;;;23.50;71.70;;;;;;4998033;28;20573;-65
2021/08/17 14:04:03;;;;;;;10.03;5.17;;;23.40;71.20;;;;;;4997803;28;20535;-66
2021/08/17 14:06:29;;;;;;;5.63;5.13;;;23.20;72.40;;;;;;4997781;28;20457;-66
2021/08/17 14:08:56;;;;;;;5.87;5.37;;;23.20;75.80;;;;;;4997912;28;20460;-66
2021/08/17 14:11:23;;;;;;;5.53;5.00;;;23.10;73.90;;;;;;4997682;28;20470;-65
2021/08/17 14:13:49;;;;;;;5.40;5.00;;;23.00;74.60;;;;;;4997704;28;20461;-66
2021/08/17 14:16:16;;;;;;;5.70;5.30;;;22.80;75.00;;;;;;4997639;28;20458;-65
2021/08/17 14:18:44;;;;;;;5.63;5.13;;;22.70;75.40;;;;;;4997715;28;20480;-65
2021/08/17 14:21:15;;;;;;;5.93;5.43;;;22.70;75.00;;;;;;4997525;28;20544;-65
2021/08/17 14:23:42;;;;;;;5.83;5.17;;;22.80;75.20;;;;;;4998127;28;20473;-66
2021/08/17 14:26:11;;;;;;;5.50;5.00;;;22.70;70.90;;;;;;4997601;28;20464;-65
2021/08/17 14:28:38;;;;;;;10.83;5.53;;;22.60;71.60;;;;;;4997572;28;20458;-66
2021/08/17 14:31:05;;;;;;;6.30;5.80;;;22.50;72.60;;;;;;4997063;28;20817;-65
2021/08/17 14:33:32;;;;;;;6.43;5.87;;;22.30;72.20;;;;;;4997497;28;20449;-66
2021/08/17 14:36:00;;;;;;;6.30;5.70;;;22.40;75.80;;;;;;4997426;28;20552;-66
2021/08/17 14:38:28;;;;;;;6.23;5.63;;;22.40;75.30;;;;;;4997054;28;20444;-66
2021/08/17 14:40:55;;;;;;;6.33;5.40;;;22.40;73.60;;;;;;4996926;28;21007;-65
2021/08/17 14:43:22;;;;;;;5.80;5.30;;;22.40;74.90;;;;;;4996868;28;20497;-66
2021/08/17 14:45:49;;;;;;;6.60;6.00;;;22.20;76.20;;;;;;4997248;28;20483;-65
2021/08/17 14:48:16;;;;;;;6.80;5.80;;;22.10;75.10;;;;;;4997226;28;20454;-65
2021/08/17 14:50:44;;;;;;;6.63;6.10;;;22.10;77.20;;;;;;4997280;28;20484;-65
2021/08/17 14:53:11;;;;;;;6.80;6.20;;;22.10;78.30;;;;;;4997123;28;20450;-65
2021/08/17 14:55:40;;;;;;;6.20;5.70;;;21.80;76.70;;;;;;4996218;28;20468;-66
2021/08/17 14:58:06;;;;;;;8.93;6.47;;;21.80;79.50;;;;;;4996969;28;20457;-65
2021/08/17 15:00:33;;;;;;;6.40;5.80;;;21.80;79.00;;;;;;4996317;28;20543;-65
2021/08/17 15:03:01;;;;;;;7.70;6.33;;;21.70;80.40;;;;;;4997045;28;20465;-66
2021/08/17 15:05:28;;;;;;;7.27;6.57;;;21.50;81.10;;;;;;4996908;28;20463;-65
2021/08/17 15:07:55;;;;;;;6.80;6.20;;;21.40;79.60;;;;;;4996864;28;20453;-65
2021/08/17 15:10:23;;;;;;;7.83;7.00;;;21.40;80.20;;;;;;4996788;28;20464;-65
2021/08/17 15:12:51;;;;;;;10.43;6.70;;;21.30;82.90;;;;;;4997502;28;20465;-65
2021/08/17 15:15:19;;;;;;;7.17;6.47;;;21.40;83.30;;;;;;4997546;28;20457;-65
2021/08/17 15:17:46;;;;;;;6.63;6.03;;;21.30;83.00;;;;;;4996767;28;20548;-66
2021/08/17 15:20:15;;;;;;;7.23;6.53;;;21.30;82.90;;;;;;4996655;28;20541;-65
2021/08/17 15:22:45;;;;;;;8.80;6.77;;;21.20;82.50;;;;;;4996467;28;20481;-65
2021/08/17 15:25:14;;;;;;;8.30;6.87;;;21.10;82.90;;;;;;5012507;28;20442;-65
2021/08/17 15:27:42;;;;;;;7.70;7.00;;;20.90;82.30;;;;;;5006034;28;20819;-65
2021/08/17 15:30:11;;;;;;;8.40;7.60;;;20.90;84.20;;;;;;4996682;28;20453;-65
2021/08/17 15:32:39;;;;;;;8.70;7.90;;;20.90;83.30;;;;;;4996905;28;20797;-65
2021/08/17 15:35:08;;;;;;;8.50;7.70;;;20.80;83.70;;;;;;4996238;28;20457;-65
2021/08/17 15:37:35;;;;;;;7.67;6.50;;;20.60;83.50;;;;;;4996268;28;20458;-65
2021/08/17 15:40:02;;;;;;;9.83;7.53;;;20.70;86.20;;;;;;4995816;28;20937;-65
2021/08/17 15:42:29;;;;;;;7.70;7.10;;;20.70;88.10;;;;;;4996077;28;20486;-65
2021/08/17 15:44:56;;;;;;;8.43;7.63;;;20.70;87.70;;;;;;4996118;28;20454;-65
2021/08/17 15:47:24;;;;;;;10.50;7.40;;;20.70;87.10;;;;;;4995961;28;20503;-65
2021/08/17 15:49:51;;;;;;;7.53;6.73;;;20.70;86.00;;;;;;4995730;28;20457;-65
2021/08/17 15:52:18;;;;;;;7.73;6.93;;;20.60;86.50;;;;;;4995852;28;20481;-65
2021/08/17 15:54:47;;;;;;;8.47;7.50;;;20.50;86.00;;;;;;4995981;28;20465;-65
2021/08/17 15:57:14;;;;;;;8.67;7.87;;;20.50;89.90;;;;;;4995935;28;20512;-65
2021/08/17 15:59:42;;;;;;;9.77;8.23;;;20.30;88.90;;;;;;4995807;28;20462;-65
2021/08/17 16:02:09;;;;;;;8.00;7.23;;;20.30;90.40;;;;;;4995275;28;20486;-65
2021/08/17 16:04:37;;;;;;;11.30;8.10;;;20.30;90.20;;;;;;4995659;28;20457;-65
2021/08/17 16:07:04;;;;;;;7.40;6.70;;;20.30;89.20;;;;;;4995650;28;20458;-65
2021/08/17 16:09:32;;;;;;;8.87;7.97;;;20.30;90.10;;;;;;4995658;28;20498;-65
2021/08/17 16:11:59;;;;;;;9.00;8.20;;;20.20;90.80;;;;;;4995297;28;20470;-65
2021/08/17 16:14:25;;;;;;;8.10;7.40;;;20.10;90.20;;;;;;4995355;28;20972;-65
2021/08/17 16:16:52;;;;;;;9.40;8.50;;;20.10;91.40;;;;;;4995555;28;20461;-65
2021/08/17 16:19:19;;;;;;;8.83;8.00;;;20.10;91.10;;;;;;4995156;28;20820;-65
2021/08/17 16:21:47;;;;;;;8.27;7.10;;;20.20;91.50;;;;;;4995273;28;20847;-65
2021/08/17 16:24:13;;;;;;;8.23;7.43;;;20.20;91.30;;;;;;4995468;28;20819;-65
2021/08/17 16:26:40;;;;;;;9.17;8.27;;;20.20;91.70;;;;;;4995295;28;20460;-66
2021/08/17 16:29:08;;;;;;;9.70;8.70;;;20.10;91.30;;;;;;4995551;28;20457;-65
2021/08/17 16:31:34;;;;;;;9.10;8.20;;;20.10;91.50;;;;;;4995265;28;20473;-65
2021/08/17 16:34:04;;;;;;;9.43;8.53;;;20.10;91.90;;;;;;4995221;28;20941;-65
2021/08/17 16:36:33;;;;;;;9.07;8.17;;;20.10;91.70;;;;;;4995005;28;20445;-65
2021/08/17 16:39:01;;;;;;;9.90;7.67;;;20.10;91.30;;;;;;4995158;28;20504;-66
2021/08/17 16:41:28;;;;;;;9.20;8.30;;;20.10;91.90;;;;;;4995032;28;20486;-65
2021/08/17 16:43:55;;;;;;;11.13;7.90;;;20.20;92.30;;;;;;4994870;28;20481;-65
2021/08/17 16:46:21;;;;;;;8.63;7.73;;;20.20;92.80;;;;;;4995108;28;20461;-65
2021/08/17 16:48:48;;;;;;;9.47;8.50;;;20.10;92.00;;;;;;4994999;28;20567;-65
2021/08/17 16:51:15;;;;;;;10.40;8.37;;;20.00;92.50;;;;;;4994949;28;20485;-65
2021/08/17 16:53:42;;;;;;;9.70;8.30;;;20.00;92.80;;;;;;4994940;28;20453;-65